createdAt,value
2022-12-05T00:01:51.263Z,1.60
2022-12-05T00:04:19.873Z,1.70
2022-12-05T00:06:49.418Z,1.60
2022-12-05T00:09:17.435Z,1.60
2022-12-05T00:11:47.068Z,1.60
2022-12-05T00:14:15.493Z,1.60
2022-12-05T00:16:44.757Z,1.60
2022-12-05T00:19:15.522Z,1.60
2022-12-05T00:21:44.125Z,1.60
2022-12-05T00:24:16.387Z,1.60
2022-12-05T00:26:45.026Z,1.60
2022-12-05T00:29:13.499Z,1.60
2022-12-05T00:31:41.676Z,1.60
2022-12-05T00:34:09.868Z,1.60
2022-12-05T00:36:38.185Z,1.60
2022-12-05T00:39:09.753Z,1.60
2022-12-05T00:41:39.380Z,1.60
2022-12-05T00:44:07.510Z,1.70
2022-12-05T00:46:36.480Z,1.70
2022-12-05T00:49:06.263Z,1.70
2022-12-05T00:51:37.028Z,1.70
2022-12-05T00:54:07.356Z,1.70
2022-12-05T00:56:36.146Z,1.70
2022-12-05T00:59:07.083Z,1.70
2022-12-05T01:01:37.596Z,1.70
2022-12-05T01:04:07.338Z,1.70
2022-12-05T01:06:35.380Z,1.70
2022-12-05T01:09:05.034Z,1.70
2022-12-05T01:11:39.278Z,1.70
2022-12-05T01:14:11.226Z,1.70
2022-12-05T01:16:42.147Z,1.70
2022-12-05T01:19:13.322Z,1.70
2022-12-05T01:21:42.282Z,1.70
2022-12-05T01:24:10.805Z,1.70
2022-12-05T01:26:39.667Z,1.70
2022-12-05T01:29:07.799Z,1.70
2022-12-05T01:31:38.436Z,1.70
2022-12-05T01:34:13.299Z,1.70
2022-12-05T01:36:42.209Z,1.70
2022-12-05T01:39:11.380Z,1.70
2022-12-05T01:41:43.684Z,1.70
2022-12-05T01:44:45.128Z,1.70
2022-12-05T01:47:17.520Z,1.70
2022-12-05T01:49:46.334Z,1.70
2022-12-05T01:52:19.990Z,1.70
2022-12-05T01:54:52.184Z,1.80
2022-12-05T01:57:20.545Z,1.70
2022-12-05T01:59:52.953Z,1.80
2022-12-05T02:02:22.957Z,1.70
2022-12-05T02:05:01.704Z,1.70
2022-12-05T02:07:30.882Z,1.80
2022-12-05T02:09:59.191Z,1.80
2022-12-05T02:12:27.825Z,1.80
2022-12-05T02:15:14.715Z,1.80
2022-12-05T02:17:52.929Z,1.80
2022-12-05T02:20:36.669Z,1.80
2022-12-05T02:23:27.499Z,1.80
2022-12-05T02:26:23.558Z,1.80
2022-12-05T02:29:12.170Z,1.70
2022-12-05T02:31:52.695Z,1.70
2022-12-05T02:34:30.132Z,1.70
2022-12-05T02:37:05.397Z,1.70
2022-12-05T02:39:42.854Z,1.70
2022-12-05T02:42:16.618Z,1.70
2022-12-05T02:44:50.014Z,1.70
2022-12-05T02:47:24.164Z,1.60
2022-12-05T02:49:53.970Z,1.60
2022-12-05T02:52:24.019Z,1.60
2022-12-05T02:54:54.775Z,1.60
2022-12-05T02:57:24.620Z,1.60
2022-12-05T02:59:52.847Z,1.70
2022-12-05T03:02:28.065Z,1.70
2022-12-05T03:04:59.672Z,1.70
2022-12-05T03:07:30.239Z,1.70
2022-12-05T03:10:03.576Z,1.80
2022-12-05T03:12:38.528Z,1.80
2022-12-05T03:15:11.478Z,1.80
2022-12-05T03:17:47.079Z,1.80
2022-12-05T03:20:21.705Z,1.80
2022-12-05T03:22:55.250Z,1.90
2022-12-05T03:25:27.610Z,1.90
2022-12-05T03:28:04.222Z,1.90
2022-12-05T03:30:36.969Z,1.90
2022-12-05T03:33:12.452Z,1.90
2022-12-05T03:35:46.793Z,2.00
2022-12-05T03:38:16.225Z,2.00
2022-12-05T03:40:48.961Z,2.00
2022-12-05T03:43:23.793Z,2.00
2022-12-05T03:45:59.151Z,2.00
2022-12-05T03:48:36.288Z,2.00
2022-12-05T03:51:07.510Z,2.00
2022-12-05T03:53:42.111Z,2.00
2022-12-05T03:56:14.028Z,2.00
2022-12-05T03:58:49.963Z,2.00
2022-12-05T04:01:20.699Z,2.10
2022-12-05T04:03:56.279Z,2.10
2022-12-05T04:06:30.264Z,2.10
2022-12-05T04:09:01.999Z,2.00
2022-12-05T04:11:34.995Z,2.00
2022-12-05T04:14:08.138Z,2.10
2022-12-05T04:16:58.598Z,2.10
2022-12-05T04:19:53.451Z,2.10
2022-12-05T04:22:21.249Z,2.10
2022-12-05T04:25:09.080Z,2.10
2022-12-05T04:27:43.008Z,2.10
2022-12-05T04:30:14.869Z,2.10
2022-12-05T04:32:47.612Z,2.10
2022-12-05T04:35:21.628Z,2.10
2022-12-05T04:37:53.951Z,2.10
2022-12-05T04:40:26.189Z,2.10
2022-12-05T04:42:57.642Z,2.10
2022-12-05T04:45:27.692Z,2.10
2022-12-05T04:48:01.165Z,2.20
2022-12-05T04:50:34.191Z,2.20
2022-12-05T04:53:04.151Z,2.20
2022-12-05T04:55:34.521Z,2.20
2022-12-05T04:58:07.625Z,2.20
2022-12-05T05:00:42.058Z,2.20
2022-12-05T05:03:15.090Z,2.20
2022-12-05T05:05:48.019Z,2.20
2022-12-05T05:08:21.294Z,2.20
2022-12-05T05:10:58.372Z,2.20
2022-12-05T05:13:26.453Z,2.20
2022-12-05T05:15:54.350Z,2.20
2022-12-05T05:18:22.315Z,2.20
2022-12-05T05:20:51.731Z,2.30
2022-12-05T05:23:19.632Z,2.30
2022-12-05T05:25:52.755Z,2.30
2022-12-05T05:28:21.437Z,2.30
2022-12-05T05:30:53.275Z,2.20
2022-12-05T05:33:21.357Z,2.30
2022-12-05T05:35:49.680Z,2.30
2022-12-05T05:38:19.068Z,2.30
2022-12-05T05:40:47.836Z,2.30
2022-12-05T05:43:15.944Z,2.30
2022-12-05T05:45:44.095Z,2.30
2022-12-05T05:48:12.107Z,2.30
2022-12-05T05:50:40.171Z,2.30
2022-12-05T05:53:08.298Z,2.30
2022-12-05T05:55:40.423Z,2.30
2022-12-05T05:58:08.528Z,2.30
2022-12-05T06:00:36.878Z,2.30
2022-12-05T06:03:05.157Z,2.30
2022-12-05T06:05:33.381Z,2.40
2022-12-05T06:08:01.628Z,2.40
2022-12-05T06:10:30.366Z,2.40
2022-12-05T06:13:01.382Z,2.30
2022-12-05T06:15:29.262Z,2.40
2022-12-05T06:17:57.924Z,2.40
2022-12-05T06:20:26.069Z,2.40
2022-12-05T06:22:54.667Z,2.30
2022-12-05T06:25:22.724Z,2.40
2022-12-05T06:27:50.899Z,2.30
2022-12-05T06:30:20.374Z,2.40
2022-12-05T06:32:48.358Z,2.40
2022-12-05T06:35:16.508Z,2.40
2022-12-05T06:37:45.476Z,2.40
2022-12-05T06:40:14.250Z,2.40
2022-12-05T06:42:42.539Z,2.40
2022-12-05T06:45:11.710Z,2.40
2022-12-05T06:47:41.223Z,2.40
2022-12-05T06:50:10.461Z,2.40
2022-12-05T06:52:38.530Z,2.40
2022-12-05T06:55:07.699Z,2.40
2022-12-05T06:57:35.778Z,2.40
2022-12-05T07:00:19.884Z,2.40
2022-12-05T07:02:51.801Z,2.40
2022-12-05T07:05:20.214Z,2.50
2022-12-05T07:07:48.671Z,2.50
2022-12-05T07:10:16.773Z,2.50
2022-12-05T07:12:45.366Z,2.50
2022-12-05T07:15:13.561Z,2.50
2022-12-05T07:17:41.662Z,2.50
2022-12-05T07:20:12.754Z,2.50
2022-12-05T07:22:40.778Z,2.50
2022-12-05T07:25:09.505Z,2.50
2022-12-05T07:27:37.554Z,2.50
2022-12-05T07:30:06.480Z,2.50
2022-12-05T07:32:35.435Z,2.50
2022-12-05T07:35:03.585Z,2.50
2022-12-05T07:37:32.992Z,2.50
2022-12-05T07:40:01.318Z,2.50
2022-12-05T07:42:29.490Z,2.60
2022-12-05T07:44:57.461Z,2.60
2022-12-05T07:47:25.476Z,2.60
2022-12-05T07:49:54.118Z,2.60
2022-12-05T07:52:22.183Z,2.60
2022-12-05T07:54:51.666Z,2.60
2022-12-05T07:57:19.751Z,2.70
2022-12-05T07:59:47.820Z,2.70
2022-12-05T08:02:16.099Z,2.70
2022-12-05T08:04:44.287Z,2.70
2022-12-05T08:07:12.632Z,2.70
2022-12-05T08:09:40.809Z,2.70
2022-12-05T08:12:10.690Z,2.70
2022-12-05T08:14:38.984Z,2.80
2022-12-05T08:17:07.200Z,2.80
2022-12-05T08:19:35.652Z,2.80
2022-12-05T08:22:06.960Z,2.80
2022-12-05T08:24:36.760Z,2.90
2022-12-05T08:27:05.867Z,2.90
2022-12-05T08:29:35.684Z,2.90
2022-12-05T08:32:04.010Z,3.00
2022-12-05T08:34:32.215Z,3.00
2022-12-05T08:37:00.229Z,3.00
2022-12-05T08:39:28.259Z,3.10
2022-12-05T08:41:56.693Z,3.10
2022-12-05T08:44:25.218Z,3.10
2022-12-05T08:46:54.744Z,3.10
2022-12-05T08:49:22.688Z,3.20
2022-12-05T08:51:50.809Z,3.20
2022-12-05T08:54:19.177Z,3.20
2022-12-05T08:56:47.361Z,3.20
2022-12-05T08:59:15.440Z,3.20
2022-12-05T09:01:43.520Z,3.30
2022-12-05T09:04:13.669Z,3.30
2022-12-05T09:06:42.210Z,3.40
2022-12-05T09:09:12.662Z,3.40
2022-12-05T09:11:46.533Z,3.30
2022-12-05T09:14:15.017Z,3.30
2022-12-05T09:16:45.332Z,3.40
2022-12-05T09:19:16.403Z,3.40
2022-12-05T09:21:48.746Z,3.40
2022-12-05T09:24:16.672Z,3.50
2022-12-05T09:26:45.978Z,3.50
2022-12-05T09:29:17.011Z,3.60
2022-12-05T09:31:46.905Z,3.80
2022-12-05T09:34:18.356Z,3.70
2022-12-05T09:36:49.748Z,3.70
2022-12-05T09:39:17.866Z,3.60
2022-12-05T09:42:09.168Z,3.60
2022-12-05T09:44:58.561Z,3.60
2022-12-05T09:47:36.567Z,3.70
2022-12-05T09:50:16.491Z,3.80
2022-12-05T09:52:54.479Z,3.80
2022-12-05T09:55:22.841Z,3.90
2022-12-05T09:57:53.725Z,4.00
2022-12-05T10:00:22.288Z,4.10
2022-12-05T10:02:59.953Z,4.20
2022-12-05T10:05:38.761Z,4.30
2022-12-05T10:08:13.978Z,4.20
2022-12-05T10:10:52.063Z,4.30
2022-12-05T10:13:32.044Z,4.30
2022-12-05T10:16:04.343Z,4.30
2022-12-05T10:18:39.551Z,4.50
2022-12-05T10:21:17.140Z,4.50
2022-12-05T10:23:58.316Z,4.60
2022-12-05T10:26:31.019Z,4.70
2022-12-05T10:29:08.287Z,4.80
2022-12-05T10:31:39.434Z,4.80
2022-12-05T10:34:16.133Z,4.80
2022-12-05T10:36:55.878Z,4.80
2022-12-05T10:39:23.969Z,4.90
2022-12-05T10:41:52.347Z,4.80
2022-12-05T10:44:20.937Z,4.90
2022-12-05T10:46:49.645Z,4.80
2022-12-05T10:49:19.383Z,4.80
2022-12-05T10:51:49.310Z,4.80
2022-12-05T10:54:21.556Z,4.80
2022-12-05T10:56:51.344Z,4.70
2022-12-05T10:59:21.476Z,4.70
2022-12-05T11:01:53.336Z,4.70
2022-12-05T11:04:30.016Z,4.70
2022-12-05T11:07:02.224Z,4.70
2022-12-05T11:09:32.876Z,4.70
2022-12-05T11:12:19.571Z,4.70
2022-12-05T11:15:00.137Z,4.80
2022-12-05T11:17:33.366Z,4.80
2022-12-05T11:20:01.837Z,4.80
2022-12-05T11:22:36.821Z,4.70
2022-12-05T11:25:25.684Z,4.70
2022-12-05T11:27:59.727Z,4.80
2022-12-05T11:30:30.825Z,4.60
2022-12-05T11:33:13.339Z,4.60
2022-12-05T11:35:41.779Z,4.60
2022-12-05T11:38:13.394Z,4.60
2022-12-05T11:40:54.668Z,4.60
2022-12-05T11:43:55.268Z,4.70
2022-12-05T11:46:31.769Z,4.70
2022-12-05T11:49:13.189Z,4.70
2022-12-05T11:51:46.953Z,4.70
2022-12-05T11:55:03.963Z,4.70
2022-12-05T11:57:52.109Z,4.80
2022-12-05T12:00:25.941Z,4.80
2022-12-05T12:03:19.475Z,4.90
2022-12-05T12:05:57.506Z,5.00
2022-12-05T12:08:27.726Z,5.00
2022-12-05T12:18:25.905Z,5.00
2022-12-05T12:21:07.873Z,5.10
2022-12-05T12:23:51.122Z,5.10
2022-12-05T12:26:31.203Z,5.20
2022-12-05T12:29:08.784Z,5.10
2022-12-05T12:31:48.957Z,5.00
2022-12-05T12:34:37.119Z,5.00
2022-12-05T12:37:14.122Z,4.90
2022-12-05T12:39:52.527Z,4.90
2022-12-05T12:42:28.829Z,4.90
2022-12-05T12:45:33.672Z,4.80
2022-12-05T12:48:23.060Z,4.80
2022-12-05T12:50:55.337Z,4.80
2022-12-05T12:53:38.636Z,4.80
2022-12-05T12:56:19.744Z,4.90
2022-12-05T12:58:55.429Z,5.00
2022-12-05T13:01:34.259Z,5.00
2022-12-05T13:04:09.688Z,5.00
2022-12-05T13:06:42.875Z,5.00
2022-12-05T13:09:18.856Z,5.10
2022-12-05T13:11:49.681Z,5.10
2022-12-05T13:14:23.432Z,5.10
2022-12-05T13:16:54.410Z,5.10
2022-12-05T13:19:30.969Z,5.10
2022-12-05T13:22:01.250Z,5.20
2022-12-05T13:24:32.247Z,5.10
2022-12-05T13:27:02.516Z,5.10
2022-12-05T13:29:34.993Z,5.10
2022-12-05T13:32:05.286Z,5.10
2022-12-05T13:34:51.675Z,5.00
2022-12-05T13:37:44.240Z,5.00
2022-12-05T13:40:44.176Z,5.00
2022-12-05T13:43:13.339Z,4.90
2022-12-05T13:45:42.993Z,5.00
2022-12-05T13:48:19.960Z,5.00
2022-12-05T13:50:53.649Z,5.00
2022-12-05T13:53:38.413Z,5.00
2022-12-05T13:56:24.586Z,5.00
2022-12-05T13:58:54.187Z,5.00
2022-12-05T14:01:54.090Z,5.00
2022-12-05T14:04:50.527Z,4.90
2022-12-05T14:07:39.166Z,5.10
2022-12-05T14:10:10.149Z,5.20
2022-12-05T14:12:50.682Z,5.30
2022-12-05T14:15:30.807Z,5.40
2022-12-05T14:18:04.783Z,5.30
2022-12-05T14:20:48.240Z,5.30
2022-12-05T14:23:55.875Z,5.20
2022-12-05T14:26:44.624Z,5.20
2022-12-05T14:29:38.219Z,5.20
2022-12-05T14:32:17.991Z,5.20
2022-12-05T14:34:58.004Z,5.10
2022-12-05T14:37:30.053Z,5.00
2022-12-05T14:40:00.503Z,5.10
2022-12-05T14:42:37.593Z,5.00
2022-12-05T14:45:25.744Z,5.00
2022-12-05T14:47:56.650Z,4.90
2022-12-05T14:50:37.133Z,4.90
2022-12-05T14:53:32.126Z,5.00
2022-12-05T14:56:08.257Z,4.90
2022-12-05T14:58:43.733Z,4.80
2022-12-05T15:01:17.796Z,4.80
2022-12-05T15:04:17.333Z,4.80
2022-12-05T15:06:53.032Z,4.80
2022-12-05T15:09:37.978Z,4.70
2022-12-05T15:12:14.503Z,4.70
2022-12-05T15:14:49.329Z,4.70
2022-12-05T15:17:23.396Z,4.70
2022-12-05T15:19:57.277Z,4.60
2022-12-05T15:22:28.965Z,4.60
2022-12-05T15:24:57.270Z,4.60
2022-12-05T15:27:25.407Z,4.60
2022-12-05T15:29:56.652Z,4.70
2022-12-05T15:32:28.085Z,4.60
2022-12-05T15:35:04.944Z,4.60
2022-12-05T15:37:38.689Z,4.60
2022-12-05T15:40:13.606Z,4.50
2022-12-05T15:42:44.170Z,4.50
2022-12-05T15:45:26.170Z,4.50
2022-12-05T15:47:57.268Z,4.50
2022-12-05T15:50:31.455Z,4.50
2022-12-05T15:53:03.881Z,4.50
2022-12-05T15:55:39.477Z,4.50
2022-12-05T15:58:13.652Z,4.50
2022-12-05T16:00:50.462Z,4.50
2022-12-05T16:03:22.572Z,4.50
2022-12-05T16:06:07.356Z,4.50
2022-12-05T16:08:41.928Z,4.50
2022-12-05T16:11:10.823Z,4.50
2022-12-05T16:13:44.744Z,4.40
2022-12-05T16:16:18.831Z,4.40
2022-12-05T16:18:51.586Z,4.40
2022-12-05T16:21:38.534Z,4.40
2022-12-05T16:24:14.966Z,4.40
2022-12-05T16:26:43.892Z,4.40
2022-12-05T16:29:28.404Z,4.30
2022-12-05T16:31:59.626Z,4.30
2022-12-05T16:34:29.889Z,4.40
2022-12-05T16:36:58.884Z,4.40
2022-12-05T16:39:29.174Z,4.40
2022-12-05T16:41:57.831Z,4.40
2022-12-05T16:45:02.111Z,4.40
2022-12-05T16:48:00.102Z,4.40
2022-12-05T16:50:32.458Z,4.30
2022-12-05T16:53:14.267Z,4.30
2022-12-05T16:55:44.717Z,4.30
2022-12-05T16:58:17.741Z,4.40
2022-12-05T17:00:45.726Z,4.30
2022-12-05T17:03:34.125Z,4.30
2022-12-05T17:06:02.809Z,4.30
2022-12-05T17:08:30.731Z,4.30
2022-12-05T17:10:59.242Z,4.30
2022-12-05T17:13:27.187Z,4.40
2022-12-05T17:15:55.091Z,4.30
2022-12-05T17:18:29.738Z,4.40
2022-12-05T17:21:02.588Z,4.30
2022-12-05T17:23:30.533Z,4.30
2022-12-05T17:26:00.005Z,4.30
2022-12-05T17:28:28.216Z,4.30
2022-12-05T17:30:56.242Z,4.30
2022-12-05T17:33:25.638Z,4.30
2022-12-05T17:35:53.820Z,4.30
2022-12-05T17:38:21.993Z,4.30
2022-12-05T17:40:50.006Z,4.20
2022-12-05T17:43:24.572Z,4.20
2022-12-05T17:45:54.808Z,4.20
2022-12-05T17:48:23.044Z,4.10
2022-12-05T17:50:52.346Z,4.10
2022-12-05T17:53:22.415Z,4.10
2022-12-05T17:55:50.770Z,4.10
2022-12-05T17:58:19.049Z,4.00
2022-12-05T18:00:48.403Z,4.10
2022-12-05T18:03:18.219Z,4.10
2022-12-05T18:05:46.553Z,4.10
2022-12-05T18:08:17.477Z,4.00
2022-12-05T18:10:47.268Z,4.00
2022-12-05T18:13:16.455Z,4.10
2022-12-05T18:15:44.995Z,4.00
2022-12-05T18:18:16.444Z,4.00
2022-12-05T18:20:45.193Z,4.00
2022-12-05T18:23:13.473Z,4.00
2022-12-05T18:25:43.007Z,4.00
2022-12-05T18:28:16.425Z,4.00
2022-12-05T18:30:47.463Z,4.00
2022-12-05T18:33:15.517Z,4.00
2022-12-05T18:35:43.475Z,4.00
2022-12-05T18:38:12.423Z,4.00
2022-12-05T18:40:41.741Z,3.90
2022-12-05T18:43:09.709Z,4.00
2022-12-05T18:45:37.980Z,3.90
2022-12-05T18:50:54.792Z,3.90
2022-12-05T18:53:22.981Z,3.90
2022-12-05T18:56:13.383Z,3.90
2022-12-05T18:58:40.330Z,3.90
2022-12-05T19:01:17.948Z,3.80
2022-12-05T19:03:45.912Z,3.80
2022-12-05T19:06:15.547Z,3.70
2022-12-05T19:08:45.038Z,3.70
2022-12-05T19:11:15.391Z,3.60
2022-12-05T19:13:43.966Z,3.60
2022-12-05T19:16:16.790Z,3.50
2022-12-05T19:18:45.289Z,3.50
2022-12-05T19:21:13.665Z,3.40
2022-12-05T19:23:42.518Z,3.40
2022-12-05T19:26:10.994Z,3.40
2022-12-05T19:29:05.244Z,3.30
2022-12-05T19:31:36.721Z,3.30
2022-12-05T19:34:06.998Z,3.20
2022-12-05T19:36:36.805Z,3.20
2022-12-05T19:39:10.239Z,3.20
2022-12-05T19:41:38.621Z,3.20
2022-12-05T19:44:08.231Z,3.20
2022-12-05T19:46:36.588Z,3.20
2022-12-05T19:49:06.360Z,3.20
2022-12-05T19:51:35.158Z,3.20
2022-12-05T19:54:05.248Z,3.20
2022-12-05T19:56:34.631Z,3.20
2022-12-05T19:59:03.156Z,3.20
2022-12-05T20:01:35.714Z,3.20
2022-12-05T20:04:08.004Z,3.20
2022-12-05T20:06:38.040Z,3.20
2022-12-05T20:09:07.584Z,3.10
2022-12-05T20:11:35.868Z,3.20
2022-12-05T20:14:03.856Z,3.10
2022-12-05T20:16:33.678Z,3.10
2022-12-05T20:19:01.961Z,3.10
2022-12-05T20:21:31.143Z,3.20
2022-12-05T20:24:00.808Z,3.20
2022-12-05T20:26:30.650Z,3.20
2022-12-05T20:29:00.419Z,3.20
2022-12-05T20:31:30.844Z,3.20
2022-12-05T20:34:00.425Z,3.20
2022-12-05T20:36:30.473Z,3.20
2022-12-05T20:39:03.516Z,3.20
2022-12-05T20:41:31.923Z,3.20
2022-12-05T20:44:02.136Z,3.20
2022-12-05T20:46:31.615Z,3.20
2022-12-05T20:49:00.972Z,3.20
2022-12-05T20:51:30.579Z,3.20
2022-12-05T20:54:01.976Z,3.20
2022-12-05T20:56:32.528Z,3.20
2022-12-05T20:59:02.393Z,3.20
2022-12-05T21:01:33.200Z,3.20
2022-12-05T21:04:04.816Z,3.20
2022-12-05T21:06:34.715Z,3.30
2022-12-05T21:09:04.473Z,3.20
2022-12-05T21:11:32.400Z,3.20
2022-12-05T21:14:04.763Z,3.20
2022-12-05T21:16:32.741Z,3.20
2022-12-05T21:19:02.093Z,3.20
2022-12-05T21:21:31.910Z,3.20
2022-12-05T21:24:01.659Z,3.20
2022-12-05T21:26:32.704Z,3.20
2022-12-05T21:29:01.392Z,3.20
2022-12-05T21:31:31.581Z,3.20
2022-12-05T21:34:03.336Z,3.20
2022-12-05T21:36:33.750Z,3.20
2022-12-05T21:39:02.034Z,3.20
2022-12-05T21:41:30.052Z,3.10
2022-12-05T21:43:58.014Z,3.10
2022-12-05T21:46:28.860Z,3.10
2022-12-05T21:48:56.927Z,3.10
2022-12-05T21:51:28.839Z,3.10
2022-12-05T21:53:56.964Z,3.10
2022-12-05T21:56:25.507Z,3.10
2022-12-05T21:58:53.828Z,3.10
2022-12-05T22:01:23.499Z,3.10
2022-12-05T22:03:53.334Z,3.20
2022-12-05T22:06:21.609Z,3.10
2022-12-05T22:08:50.896Z,3.10
2022-12-05T22:11:21.240Z,3.10
2022-12-05T22:13:49.869Z,3.10
2022-12-05T22:16:18.741Z,3.00
2022-12-05T22:18:47.339Z,3.10
2022-12-05T22:21:17.469Z,3.10
2022-12-05T22:23:45.443Z,3.10
2022-12-05T22:26:17.219Z,3.10
2022-12-05T22:28:45.874Z,3.00
2022-12-05T22:31:18.102Z,3.10
2022-12-05T22:33:49.086Z,3.10
2022-12-05T22:36:19.089Z,3.10
2022-12-05T22:38:48.716Z,3.00
2022-12-05T22:41:20.212Z,3.00
2022-12-05T22:43:50.102Z,3.10
2022-12-05T22:46:19.827Z,3.10
2022-12-05T22:48:49.872Z,3.10
2022-12-05T22:51:20.285Z,3.10
2022-12-05T22:53:50.560Z,3.10
2022-12-05T22:56:21.489Z,3.10
2022-12-05T22:58:50.137Z,3.00
2022-12-05T23:01:20.185Z,3.00
2022-12-05T23:03:50.932Z,3.00
2022-12-05T23:06:19.285Z,3.00
2022-12-05T23:08:48.819Z,3.10
2022-12-05T23:11:17.553Z,3.00
2022-12-05T23:13:47.741Z,3.10
2022-12-05T23:16:18.679Z,3.00
2022-12-05T23:18:49.540Z,3.00
2022-12-05T23:21:20.057Z,3.00
2022-12-05T23:23:49.272Z,3.10
2022-12-05T23:26:19.796Z,3.10
2022-12-05T23:28:49.292Z,3.10
2022-12-05T23:31:18.472Z,3.10
2022-12-05T23:33:51.066Z,3.10
2022-12-05T23:36:20.113Z,3.00
2022-12-05T23:38:49.541Z,3.00
2022-12-05T23:41:19.209Z,3.00
2022-12-05T23:43:49.975Z,3.00
2022-12-05T23:46:21.017Z,3.00
2022-12-05T23:48:49.715Z,3.00
2022-12-05T23:51:20.219Z,3.00
2022-12-05T23:53:52.507Z,3.00
2022-12-05T23:56:22.586Z,3.00
2022-12-05T23:58:52.860Z,3.00
